createdAt,value
2023-11-30T00:00:25.473Z,0.63
2023-11-30T00:02:52.539Z,0.64
2023-11-30T00:05:21.953Z,0.62
2023-11-30T00:07:50.098Z,0.58
2023-11-30T00:10:16.860Z,0.60
2023-11-30T00:12:43.431Z,0.51
2023-11-30T00:15:10.808Z,0.43
2023-11-30T00:17:37.726Z,0.45
2023-11-30T00:20:05.038Z,0.51
2023-11-30T00:22:31.750Z,0.49
2023-11-30T00:24:58.453Z,0.51
2023-11-30T00:27:25.312Z,0.47
2023-11-30T00:29:52.292Z,0.36
2023-11-30T00:32:18.921Z,0.38
2023-11-30T00:34:45.572Z,0.47
2023-11-30T00:37:12.188Z,0.43
2023-11-30T00:39:39.095Z,0.39
2023-11-30T00:42:05.829Z,0.39
2023-11-30T00:44:32.575Z,0.41
2023-11-30T00:46:59.228Z,0.37
2023-11-30T00:49:25.878Z,0.38
2023-11-30T00:51:52.619Z,0.41
2023-11-30T00:54:19.349Z,0.40
2023-11-30T00:56:46.136Z,0.38
2023-11-30T00:59:12.980Z,0.31
2023-11-30T01:01:39.983Z,0.29
2023-11-30T01:04:06.825Z,0.29
2023-11-30T01:06:33.520Z,0.33
2023-11-30T01:09:00.231Z,0.25
2023-11-30T01:11:26.936Z,0.16
2023-11-30T01:13:53.753Z,0.26
2023-11-30T01:16:20.598Z,0.31
2023-11-30T01:18:47.223Z,0.32
2023-11-30T01:21:14.162Z,0.29
2023-11-30T01:23:41.214Z,0.29
2023-11-30T01:26:07.823Z,0.28
2023-11-30T01:28:34.549Z,0.31
2023-11-30T01:31:01.856Z,0.27
2023-11-30T01:33:28.999Z,0.28
2023-11-30T01:35:55.782Z,0.25
2023-11-30T01:38:22.436Z,0.27
2023-11-30T01:40:49.176Z,0.22
2023-11-30T01:43:22.039Z,0.21
2023-11-30T01:45:51.584Z,0.17
2023-11-30T01:48:22.300Z,0.18
2023-11-30T01:50:49.159Z,0.19
2023-11-30T01:53:16.680Z,0.14
2023-11-30T01:55:43.473Z,0.14
2023-11-30T01:58:10.915Z,0.12
2023-11-30T02:00:37.780Z,0.10
2023-11-30T02:03:04.904Z,0.09
2023-11-30T02:05:31.838Z,0.08
2023-11-30T02:07:58.458Z,0.05
2023-11-30T02:10:25.324Z,0.02
2023-11-30T02:12:51.972Z,0.04
2023-11-30T02:15:18.979Z,0.05
2023-11-30T02:17:46.448Z,0.04
2023-11-30T02:20:13.184Z,-0.04
2023-11-30T02:22:39.841Z,-0.04
2023-11-30T02:25:06.747Z,-0.02
2023-11-30T02:27:33.484Z,-0.04
2023-11-30T02:30:00.299Z,-0.04
2023-11-30T02:32:27.049Z,-0.06
2023-11-30T02:34:53.887Z,-0.04
2023-11-30T02:37:20.486Z,-0.05
2023-11-30T02:39:47.088Z,-0.05
2023-11-30T02:42:14.036Z,-0.06
2023-11-30T02:44:40.682Z,-0.15
2023-11-30T02:47:07.313Z,-0.11
2023-11-30T02:49:34.540Z,-0.14
2023-11-30T02:52:01.419Z,-0.16
2023-11-30T02:54:28.073Z,-0.18
2023-11-30T02:56:54.789Z,-0.15
2023-11-30T02:59:21.540Z,-0.15
2023-11-30T03:01:50.421Z,-0.15
2023-11-30T03:04:17.272Z,-0.18
2023-11-30T03:06:43.959Z,-0.17
2023-11-30T03:09:11.910Z,-0.22
2023-11-30T03:11:40.435Z,-0.28
2023-11-30T03:14:07.183Z,-0.25
2023-11-30T03:16:33.794Z,-0.22
2023-11-30T03:19:13.670Z,-0.24
2023-11-30T03:21:43.294Z,-0.28
2023-11-30T03:24:09.968Z,-0.27
2023-11-30T03:26:36.643Z,-0.32
2023-11-30T03:29:03.764Z,-0.35
2023-11-30T03:31:30.529Z,-0.37
2023-11-30T03:33:57.216Z,-0.37
2023-11-30T03:36:24.366Z,-0.40
2023-11-30T03:38:55.438Z,-0.42
2023-11-30T03:41:25.064Z,-0.48
2023-11-30T03:43:53.030Z,-0.52
2023-11-30T03:46:22.931Z,-0.55
2023-11-30T03:48:49.673Z,-0.55
2023-11-30T03:51:16.423Z,-0.56
2023-11-30T03:53:43.107Z,-0.59
2023-11-30T03:56:10.042Z,-0.61
2023-11-30T03:58:36.826Z,-0.64
2023-11-30T04:01:03.494Z,-0.61
2023-11-30T04:03:30.340Z,-0.65
2023-11-30T04:05:57.039Z,-0.65
2023-11-30T04:08:23.686Z,-0.65
2023-11-30T04:10:50.402Z,-0.66
2023-11-30T04:13:17.269Z,-0.65
2023-11-30T04:15:44.226Z,-0.65
2023-11-30T04:18:11.013Z,-0.65
2023-11-30T04:20:37.943Z,-0.62
2023-11-30T04:23:04.797Z,-0.68
2023-11-30T04:25:31.442Z,-0.64
2023-11-30T04:27:58.223Z,-0.57
2023-11-30T04:30:24.953Z,-0.59
2023-11-30T04:32:51.647Z,-0.60
2023-11-30T04:35:18.474Z,-0.56
2023-11-30T04:37:45.119Z,-0.53
2023-11-30T04:40:13.793Z,-0.52
2023-11-30T04:42:40.460Z,-0.51
2023-11-30T04:45:07.543Z,-0.48
2023-11-30T04:47:34.294Z,-0.47
2023-11-30T04:50:01.222Z,-0.42
2023-11-30T04:52:27.833Z,-0.45
2023-11-30T04:54:54.458Z,-0.43
2023-11-30T04:57:21.171Z,-0.44
2023-11-30T04:59:47.777Z,-0.41
2023-11-30T05:02:14.821Z,-0.39
2023-11-30T05:04:41.625Z,-0.38
2023-11-30T05:07:08.455Z,-0.36
2023-11-30T05:09:35.112Z,-0.35
2023-11-30T05:12:01.879Z,-0.34
2023-11-30T05:14:28.684Z,-0.36
2023-11-30T05:16:55.383Z,-0.31
2023-11-30T05:19:22.008Z,-0.31
2023-11-30T05:21:48.634Z,-0.28
2023-11-30T05:24:15.371Z,-0.31
2023-11-30T05:26:42.043Z,-0.32
2023-11-30T05:29:08.719Z,-0.29
2023-11-30T05:31:35.532Z,-0.34
2023-11-30T05:34:03.631Z,-0.37
2023-11-30T05:36:30.649Z,-0.25
2023-11-30T05:38:57.488Z,-0.28
2023-11-30T05:41:24.253Z,-0.27
2023-11-30T05:43:52.045Z,-0.32
2023-11-30T05:46:20.268Z,-0.27
2023-11-30T05:48:47.240Z,-0.20
2023-11-30T05:51:14.924Z,-0.36
2023-11-30T05:53:41.728Z,-0.28
2023-11-30T05:56:08.864Z,-0.31
2023-11-30T05:58:35.444Z,-0.19
2023-11-30T06:01:02.126Z,-0.24
2023-11-30T06:03:28.873Z,-0.15
2023-11-30T06:05:56.210Z,-0.10
2023-11-30T06:08:25.922Z,-0.09
2023-11-30T06:10:52.736Z,-0.06
2023-11-30T06:13:19.642Z,-0.05
2023-11-30T06:15:46.978Z,-0.12
2023-11-30T06:18:13.772Z,-0.02
2023-11-30T06:20:40.419Z,0.01
2023-11-30T06:23:07.089Z,0.02
2023-11-30T06:25:33.843Z,-0.01
2023-11-30T06:28:00.682Z,0.00
2023-11-30T06:30:27.325Z,-0.02
2023-11-30T06:32:54.098Z,0.01
2023-11-30T06:35:21.996Z,0.03
2023-11-30T06:37:48.744Z,0.02
2023-11-30T06:40:15.398Z,0.05
2023-11-30T06:42:42.038Z,0.04
2023-11-30T06:45:09.220Z,0.02
2023-11-30T06:47:36.076Z,0.03
2023-11-30T06:50:02.908Z,0.03
2023-11-30T06:52:29.604Z,-0.06
2023-11-30T06:54:56.251Z,-0.01
2023-11-30T06:57:23.041Z,0.04
2023-11-30T06:59:49.658Z,0.06
2023-11-30T07:02:16.258Z,0.07
2023-11-30T07:04:43.016Z,-0.07
2023-11-30T07:07:12.931Z,0.03
2023-11-30T07:09:43.644Z,0.09
2023-11-30T07:12:14.278Z,0.03
2023-11-30T07:14:50.755Z,-0.14
2023-11-30T07:17:18.570Z,-0.03
2023-11-30T07:19:45.398Z,-0.03
2023-11-30T07:22:12.773Z,0.01
2023-11-30T07:24:39.389Z,0.11
2023-11-30T07:27:06.419Z,-0.06
2023-11-30T07:29:34.715Z,-0.02
2023-11-30T07:32:01.458Z,0.05
2023-11-30T07:34:28.204Z,0.10
2023-11-30T07:36:55.139Z,0.20
2023-11-30T07:39:22.290Z,0.23
2023-11-30T07:41:50.354Z,0.28
2023-11-30T07:44:17.903Z,0.29
2023-11-30T07:46:45.552Z,0.28
2023-11-30T07:49:12.531Z,0.23
2023-11-30T07:51:39.215Z,0.37
2023-11-30T07:54:07.242Z,0.35
2023-11-30T07:56:36.771Z,0.33
2023-11-30T07:59:03.534Z,0.20
2023-11-30T08:01:30.181Z,0.34
2023-11-30T08:03:59.467Z,0.40
2023-11-30T08:06:26.218Z,0.30
2023-11-30T08:08:53.001Z,0.47
2023-11-30T08:11:21.270Z,0.62
2023-11-30T08:13:47.908Z,0.52
2023-11-30T08:16:15.608Z,0.45
2023-11-30T08:18:42.343Z,0.59
2023-11-30T08:21:09.031Z,0.58
2023-11-30T08:23:37.865Z,0.77
2023-11-30T08:26:05.318Z,0.86
2023-11-30T08:28:31.986Z,0.90
2023-11-30T08:31:01.935Z,0.96
2023-11-30T08:33:29.779Z,0.84
2023-11-30T08:35:56.511Z,0.89
2023-11-30T08:38:24.200Z,0.98
2023-11-30T08:40:50.783Z,1.13
2023-11-30T08:43:17.464Z,1.12
2023-11-30T08:45:45.230Z,1.18
2023-11-30T08:48:12.108Z,1.10
2023-11-30T08:50:38.826Z,1.14
2023-11-30T08:53:05.439Z,1.15
2023-11-30T08:55:33.393Z,1.28
2023-11-30T08:58:00.071Z,1.07
2023-11-30T09:00:27.067Z,1.39
2023-11-30T09:02:53.725Z,1.25
2023-11-30T09:05:21.186Z,1.05
2023-11-30T09:07:47.988Z,1.14
2023-11-30T09:10:14.640Z,1.15
2023-11-30T09:12:41.370Z,1.18
2023-11-30T09:15:10.381Z,1.22
2023-11-30T09:17:37.345Z,1.03
2023-11-30T09:20:06.397Z,1.15
2023-11-30T09:22:36.874Z,1.21
2023-11-30T09:25:04.664Z,1.38
2023-11-30T09:27:31.285Z,1.18
2023-11-30T09:29:58.047Z,1.33
2023-11-30T09:32:24.856Z,1.03
2023-11-30T09:34:51.595Z,1.29
2023-11-30T09:37:18.837Z,1.31
2023-11-30T09:39:45.824Z,1.46
2023-11-30T09:42:17.538Z,1.56
2023-11-30T09:44:44.812Z,1.53
2023-11-30T09:47:12.316Z,1.72
2023-11-30T09:49:39.388Z,1.68
2023-11-30T09:52:06.752Z,1.72
2023-11-30T09:54:33.795Z,1.44
2023-11-30T09:57:00.396Z,1.70
2023-11-30T09:59:30.808Z,1.60
2023-11-30T10:02:03.738Z,1.65
2023-11-30T10:04:32.329Z,1.70
2023-11-30T10:06:59.261Z,1.59
2023-11-30T10:09:26.003Z,1.58
2023-11-30T10:11:53.726Z,1.70
2023-11-30T10:14:20.517Z,1.69
2023-11-30T10:16:47.283Z,1.69
2023-11-30T10:19:14.646Z,1.92
2023-11-30T10:21:43.168Z,1.95
2023-11-30T10:24:10.501Z,1.98
2023-11-30T10:26:39.367Z,2.17
2023-11-30T10:29:08.113Z,2.04
2023-11-30T10:31:38.272Z,2.07
2023-11-30T10:34:13.816Z,1.98
2023-11-30T10:36:44.039Z,2.28
2023-11-30T10:39:19.902Z,2.15
2023-11-30T10:41:54.449Z,2.23
2023-11-30T10:44:28.519Z,2.17
2023-11-30T10:46:57.402Z,2.28
2023-11-30T10:49:25.764Z,2.37
2023-11-30T10:51:56.618Z,2.51
2023-11-30T10:54:38.687Z,2.77
2023-11-30T10:57:06.263Z,2.63
2023-11-30T10:59:34.167Z,2.57
2023-11-30T11:02:01.286Z,2.58
2023-11-30T11:04:29.051Z,2.56
2023-11-30T11:07:08.754Z,2.35
2023-11-30T11:09:51.507Z,2.44
2023-11-30T11:12:26.827Z,2.39
2023-11-30T11:15:14.865Z,2.46
2023-11-30T11:17:53.745Z,2.34
2023-11-30T11:20:27.152Z,2.17
2023-11-30T11:23:10.382Z,2.23
2023-11-30T11:25:40.442Z,2.30
2023-11-30T11:28:07.606Z,2.44
2023-11-30T11:30:41.192Z,2.48
2023-11-30T11:33:07.885Z,2.47
2023-11-30T11:35:34.611Z,2.49
2023-11-30T11:38:01.244Z,2.20
2023-11-30T11:40:28.307Z,2.31
2023-11-30T11:42:55.790Z,2.34
2023-11-30T11:45:22.557Z,2.22
2023-11-30T11:47:49.362Z,2.40
2023-11-30T11:50:16.596Z,2.31
2023-11-30T11:52:43.293Z,2.33
2023-11-30T11:55:12.140Z,2.35
2023-11-30T11:57:40.372Z,2.42
2023-11-30T12:00:19.394Z,2.40
2023-11-30T12:02:46.485Z,2.53
2023-11-30T12:05:15.305Z,2.47
2023-11-30T12:07:49.795Z,2.70
2023-11-30T12:10:43.379Z,2.61
2023-11-30T12:13:13.601Z,2.76
2023-11-30T12:15:41.076Z,2.54
2023-11-30T12:18:08.640Z,2.37
2023-11-30T12:20:36.467Z,2.42
2023-11-30T12:23:03.427Z,2.34
2023-11-30T12:25:30.121Z,2.22
2023-11-30T12:27:57.187Z,2.25
2023-11-30T12:30:25.129Z,2.28
2023-11-30T12:32:52.031Z,2.14
2023-11-30T12:35:18.782Z,2.26
2023-11-30T12:37:45.414Z,1.99
2023-11-30T12:40:14.823Z,2.07
2023-11-30T12:42:45.606Z,2.15
2023-11-30T12:45:13.336Z,2.19
2023-11-30T12:47:42.101Z,2.16
2023-11-30T12:50:10.561Z,2.19
2023-11-30T12:52:37.604Z,2.29
2023-11-30T12:55:05.411Z,2.33
2023-11-30T12:57:35.782Z,2.16
2023-11-30T13:00:04.537Z,2.17
2023-11-30T13:02:32.118Z,2.24
2023-11-30T13:04:58.816Z,2.35
2023-11-30T13:07:25.606Z,2.14
2023-11-30T13:09:52.350Z,2.24
2023-11-30T13:12:19.033Z,2.28
2023-11-30T13:14:45.638Z,2.20
2023-11-30T13:17:12.264Z,2.22
2023-11-30T13:19:38.969Z,2.20
2023-11-30T13:22:05.629Z,2.07
2023-11-30T13:24:32.489Z,2.02
2023-11-30T13:26:59.139Z,1.94
2023-11-30T13:29:25.742Z,1.95
2023-11-30T13:31:52.347Z,2.05
2023-11-30T13:34:19.153Z,2.18
2023-11-30T13:36:45.911Z,2.02
2023-11-30T13:39:12.679Z,1.77
2023-11-30T13:41:39.252Z,1.92
2023-11-30T13:44:06.462Z,1.82
2023-11-30T13:46:33.257Z,1.71
2023-11-30T13:49:00.465Z,1.81
2023-11-30T13:51:27.188Z,1.73
2023-11-30T13:53:54.030Z,1.58
2023-11-30T13:56:22.847Z,1.68
2023-11-30T13:58:50.769Z,1.72
2023-11-30T14:01:17.891Z,1.79
2023-11-30T14:03:44.798Z,1.82
2023-11-30T14:06:13.375Z,1.83
2023-11-30T14:08:41.318Z,1.73
2023-11-30T14:11:13.209Z,1.89
2023-11-30T14:13:40.260Z,1.72
2023-11-30T14:16:07.817Z,1.72
2023-11-30T14:18:34.741Z,1.90
2023-11-30T14:21:01.500Z,1.97
2023-11-30T14:23:28.489Z,1.87
2023-11-30T14:25:55.220Z,1.86
2023-11-30T14:28:22.756Z,1.92
2023-11-30T14:30:49.561Z,1.91
2023-11-30T14:33:16.414Z,1.88
2023-11-30T14:35:42.987Z,1.93
2023-11-30T14:38:09.693Z,1.82
2023-11-30T14:40:37.181Z,1.79
2023-11-30T14:43:03.792Z,1.62
2023-11-30T14:45:30.720Z,1.57
2023-11-30T14:47:59.655Z,1.74
2023-11-30T14:50:27.431Z,1.71
2023-11-30T14:52:55.233Z,1.72
2023-11-30T14:55:22.188Z,1.60
2023-11-30T14:57:51.715Z,1.81
2023-11-30T15:00:22.337Z,1.81
2023-11-30T15:02:49.806Z,1.73
2023-11-30T15:05:16.803Z,1.86
2023-11-30T15:07:43.843Z,1.84
2023-11-30T15:10:12.658Z,1.82
2023-11-30T15:12:40.252Z,1.77
2023-11-30T15:15:14.370Z,1.74
2023-11-30T15:17:43.495Z,1.71
2023-11-30T15:20:11.954Z,1.67
2023-11-30T15:22:39.288Z,1.63
2023-11-30T15:25:08.735Z,1.69
2023-11-30T15:27:37.553Z,1.73
2023-11-30T15:30:05.544Z,1.80
2023-11-30T15:32:32.187Z,1.85
2023-11-30T15:34:58.931Z,1.74
2023-11-30T15:37:25.555Z,1.82
2023-11-30T15:39:54.350Z,1.86
2023-11-30T15:42:21.481Z,1.70
2023-11-30T15:44:48.495Z,1.58
2023-11-30T15:47:15.129Z,1.53
2023-11-30T15:49:41.784Z,1.73
2023-11-30T15:52:08.439Z,1.81
2023-11-30T15:54:39.255Z,1.87
2023-11-30T15:57:05.921Z,1.95
2023-11-30T15:59:32.527Z,1.91
2023-11-30T16:01:59.159Z,1.91
2023-11-30T16:04:26.642Z,1.94
2023-11-30T16:06:53.335Z,1.96
2023-11-30T16:09:19.981Z,1.93
2023-11-30T16:11:49.393Z,1.94
2023-11-30T16:14:17.012Z,1.99
2023-11-30T16:16:45.680Z,1.86
2023-11-30T16:19:12.543Z,1.95
2023-11-30T16:21:39.609Z,1.79
2023-11-30T16:24:06.559Z,1.70
2023-11-30T16:26:34.902Z,1.69
2023-11-30T16:29:01.635Z,1.78
2023-11-30T16:31:28.344Z,1.72
2023-11-30T16:33:55.620Z,1.73
2023-11-30T16:36:24.409Z,1.88
2023-11-30T16:38:52.548Z,1.87
2023-11-30T16:41:19.143Z,1.83
2023-11-30T16:43:46.372Z,1.87
2023-11-30T16:46:14.011Z,1.83
2023-11-30T16:48:45.259Z,1.61
2023-11-30T16:51:12.853Z,1.50
2023-11-30T16:53:39.808Z,1.40
2023-11-30T16:56:06.825Z,1.56
2023-11-30T16:58:33.597Z,1.68
2023-11-30T17:01:00.280Z,1.82
2023-11-30T17:03:27.143Z,1.68
2023-11-30T17:05:54.144Z,1.79
2023-11-30T17:08:20.850Z,1.74
2023-11-30T17:10:47.922Z,1.81
2023-11-30T17:13:14.633Z,1.61
2023-11-30T17:15:41.333Z,1.56
2023-11-30T17:18:08.021Z,1.46
2023-11-30T17:20:34.767Z,1.50
2023-11-30T17:23:01.561Z,1.50
2023-11-30T17:25:28.305Z,1.55
2023-11-30T17:27:55.031Z,1.56
2023-11-30T17:30:21.762Z,1.72
2023-11-30T17:32:48.568Z,1.77
2023-11-30T17:35:15.562Z,1.68
2023-11-30T17:37:42.323Z,1.70
2023-11-30T17:40:11.892Z,1.55
2023-11-30T17:42:39.037Z,1.70
2023-11-30T17:45:06.986Z,1.59
2023-11-30T17:47:34.594Z,1.43
2023-11-30T17:50:04.538Z,1.58
2023-11-30T17:52:31.929Z,1.56
2023-11-30T17:54:58.785Z,1.62
2023-11-30T17:57:25.539Z,1.58
2023-11-30T17:59:52.181Z,1.56
2023-11-30T18:02:18.861Z,1.54
2023-11-30T18:04:45.639Z,1.36
2023-11-30T18:07:12.299Z,1.33
2023-11-30T18:09:39.016Z,1.22
2023-11-30T18:12:06.999Z,1.40
2023-11-30T18:14:33.878Z,1.54
2023-11-30T18:17:01.495Z,1.59
2023-11-30T18:19:28.628Z,1.63
2023-11-30T18:21:55.275Z,1.53
2023-11-30T18:24:30.993Z,1.41
2023-11-30T18:26:58.979Z,1.56
2023-11-30T18:29:25.896Z,1.53
2023-11-30T18:31:52.788Z,1.52
2023-11-30T18:34:20.240Z,1.69
2023-11-30T18:36:47.302Z,1.52
2023-11-30T18:39:15.993Z,1.57
2023-11-30T18:41:43.558Z,1.52
2023-11-30T18:44:12.423Z,1.55
2023-11-30T18:46:39.770Z,1.64
2023-11-30T18:49:06.734Z,1.64
2023-11-30T18:51:35.315Z,1.57
2023-11-30T18:54:02.388Z,1.68
2023-11-30T18:56:30.014Z,1.70
2023-11-30T18:58:57.516Z,1.68
2023-11-30T19:01:25.144Z,1.55
2023-11-30T19:03:52.347Z,1.57
2023-11-30T19:06:21.033Z,1.66
2023-11-30T19:08:48.760Z,1.64
2023-11-30T19:11:17.370Z,1.62
2023-11-30T19:13:44.728Z,1.54
2023-11-30T19:16:24.415Z,1.65
2023-11-30T19:18:51.681Z,1.73
2023-11-30T19:21:19.262Z,1.72
2023-11-30T19:23:46.733Z,1.60
2023-11-30T19:26:13.987Z,1.54
2023-11-30T19:28:40.743Z,1.60
2023-11-30T19:31:07.701Z,1.51
2023-11-30T19:33:34.525Z,1.26
2023-11-30T19:36:01.791Z,1.42
2023-11-30T19:38:28.977Z,1.39
2023-11-30T19:40:57.203Z,1.28
2023-11-30T19:43:25.403Z,1.38
2023-11-30T19:45:53.677Z,1.51
2023-11-30T19:48:20.683Z,1.25
2023-11-30T19:50:47.399Z,1.36
2023-11-30T19:53:14.124Z,1.31
2023-11-30T19:55:40.828Z,1.31
2023-11-30T19:58:07.900Z,1.41
2023-11-30T20:00:34.777Z,1.42
2023-11-30T20:03:01.516Z,1.33
2023-11-30T20:05:28.307Z,1.37
2023-11-30T20:07:54.980Z,1.29
2023-11-30T20:10:21.537Z,1.35
2023-11-30T20:12:50.208Z,1.19
2023-11-30T20:15:17.420Z,1.31
2023-11-30T20:17:44.079Z,1.23
2023-11-30T20:20:11.022Z,1.22
2023-11-30T20:22:37.641Z,1.35
2023-11-30T20:25:05.508Z,1.46
2023-11-30T20:27:32.215Z,1.56
2023-11-30T20:29:59.019Z,1.58
2023-11-30T20:32:26.036Z,1.59
2023-11-30T20:34:55.965Z,1.58
2023-11-30T20:37:22.577Z,1.51
2023-11-30T20:39:49.308Z,1.41
2023-11-30T20:42:15.906Z,1.57
2023-11-30T20:44:42.496Z,1.50
2023-11-30T20:47:09.270Z,1.45
2023-11-30T20:49:38.987Z,1.56
2023-11-30T20:52:05.935Z,1.56
2023-11-30T20:54:35.461Z,1.37
2023-11-30T20:57:03.554Z,1.49
2023-11-30T20:59:30.225Z,1.41
2023-11-30T21:01:56.974Z,1.58
2023-11-30T21:04:23.834Z,1.42
2023-11-30T21:06:50.520Z,1.49
2023-11-30T21:09:17.239Z,1.50
2023-11-30T21:11:43.969Z,1.54
2023-11-30T21:14:12.085Z,1.61
2023-11-30T21:16:38.681Z,1.67
2023-11-30T21:19:05.392Z,1.65
2023-11-30T21:21:32.278Z,1.72
2023-11-30T21:23:58.909Z,1.64
2023-11-30T21:26:25.804Z,1.52
2023-11-30T21:28:52.416Z,1.42
2023-11-30T21:31:19.091Z,1.55
2023-11-30T21:33:45.824Z,1.34
2023-11-30T21:36:15.330Z,1.41
2023-11-30T21:38:42.161Z,1.59
2023-11-30T21:41:09.276Z,1.55
2023-11-30T21:43:35.901Z,1.58
2023-11-30T21:46:02.659Z,1.61
2023-11-30T21:48:29.448Z,1.62
2023-11-30T21:50:56.112Z,1.66
2023-11-30T21:53:22.722Z,1.63
2023-11-30T21:55:49.591Z,1.63
2023-11-30T21:58:16.535Z,1.51
2023-11-30T22:00:44.972Z,1.59
2023-11-30T22:03:17.673Z,1.59
2023-11-30T22:05:46.204Z,1.54
2023-11-30T22:08:12.832Z,1.65
2023-11-30T22:10:39.629Z,1.58
2023-11-30T22:13:06.318Z,1.66
2023-11-30T22:15:32.976Z,1.64
2023-11-30T22:18:00.158Z,1.63
2023-11-30T22:20:26.880Z,1.62
2023-11-30T22:22:56.322Z,1.79
2023-11-30T22:25:24.346Z,1.78
2023-11-30T22:27:51.145Z,1.80
2023-11-30T22:30:17.809Z,1.81
2023-11-30T22:32:44.675Z,1.79
2023-11-30T22:35:11.414Z,1.79
2023-11-30T22:37:38.013Z,1.76
2023-11-30T22:40:05.232Z,1.79
2023-11-30T22:42:33.485Z,1.82
2023-11-30T22:45:02.377Z,1.78
2023-11-30T22:47:29.274Z,1.84
2023-11-30T22:49:56.246Z,1.80
2023-11-30T22:52:26.652Z,1.80
2023-11-30T22:54:53.880Z,1.77
2023-11-30T22:57:21.061Z,1.70
2023-11-30T22:59:47.780Z,1.77
2023-11-30T23:02:15.013Z,1.57
2023-11-30T23:04:42.031Z,1.65
2023-11-30T23:07:08.752Z,1.69
2023-11-30T23:09:35.489Z,1.65
2023-11-30T23:12:02.182Z,1.71
2023-11-30T23:14:29.103Z,1.77
2023-11-30T23:16:55.805Z,1.68
2023-11-30T23:19:22.484Z,1.68
2023-11-30T23:21:49.289Z,1.66
2023-11-30T23:24:25.851Z,1.60
2023-11-30T23:26:55.841Z,1.50
2023-11-30T23:29:23.267Z,1.47
2023-11-30T23:31:49.992Z,1.50
2023-11-30T23:34:16.656Z,1.44
2023-11-30T23:36:43.337Z,1.39
2023-11-30T23:39:10.032Z,1.41
2023-11-30T23:41:36.681Z,1.33
2023-11-30T23:44:03.438Z,1.43
2023-11-30T23:46:31.595Z,1.48
2023-11-30T23:48:58.715Z,1.44
2023-11-30T23:51:25.469Z,1.37
2023-11-30T23:53:52.223Z,1.51
2023-11-30T23:56:18.863Z,1.52
2023-11-30T23:58:45.565Z,1.57
